createdAt,value
2022-10-10T00:02:01.878Z,29.80
2022-10-10T00:04:30.039Z,28.20
2022-10-10T00:06:58.150Z,28.80
2022-10-10T00:09:26.294Z,29.52
2022-10-10T00:11:54.431Z,30.83
2022-10-10T00:14:22.565Z,27.52
2022-10-10T00:16:52.725Z,32.70
2022-10-10T00:19:21.362Z,31.13
2022-10-10T00:21:49.492Z,30.52
2022-10-10T00:24:17.599Z,30.63
2022-10-10T00:26:45.759Z,30.33
2022-10-10T00:29:14.025Z,29.90
2022-10-10T00:31:42.180Z,30.45
2022-10-10T00:34:12.941Z,31.20
2022-10-10T00:36:41.040Z,30.52
2022-10-10T00:39:09.226Z,32.53
2022-10-10T00:41:37.398Z,30.90
2022-10-10T00:44:09.103Z,27.77
2022-10-10T00:46:37.278Z,30.27
2022-10-10T00:49:11.359Z,29.73
2022-10-10T00:51:41.373Z,35.53
2022-10-10T00:54:13.290Z,30.13
2022-10-10T00:56:45.265Z,31.70
2022-10-10T00:59:13.588Z,31.75
2022-10-10T01:01:42.614Z,29.98
2022-10-10T01:04:30.245Z,31.42
2022-10-10T01:07:01.013Z,32.30
2022-10-10T01:09:29.810Z,29.13
2022-10-10T01:12:05.290Z,29.27
2022-10-10T01:14:47.283Z,31.27
2022-10-10T01:17:22.114Z,30.85
2022-10-10T01:20:25.514Z,30.27
2022-10-10T01:23:19.174Z,30.98
2022-10-10T01:26:00.472Z,29.45
2022-10-10T01:28:40.409Z,30.35
2022-10-10T01:31:11.481Z,31.25
2022-10-10T01:33:49.177Z,30.33
2022-10-10T01:36:24.050Z,32.20
2022-10-10T01:39:04.132Z,29.80
2022-10-10T01:41:37.242Z,30.67
2022-10-10T01:44:06.855Z,29.23
2022-10-10T01:46:34.989Z,30.10
2022-10-10T01:49:03.385Z,32.15
2022-10-10T01:51:58.534Z,29.70
2022-10-10T01:54:42.614Z,28.58
2022-10-10T01:57:31.233Z,28.88
2022-10-10T02:00:06.622Z,30.33
2022-10-10T02:02:50.602Z,28.88
2022-10-10T02:05:23.854Z,30.83
2022-10-10T02:07:58.260Z,29.92
2022-10-10T02:10:30.441Z,31.40
2022-10-10T02:13:01.335Z,32.03
2022-10-10T02:15:36.091Z,28.58
2022-10-10T02:18:07.435Z,29.98
2022-10-10T02:20:37.275Z,31.33
2022-10-10T02:23:06.675Z,31.05
2022-10-10T02:25:40.747Z,30.52
2022-10-10T02:28:14.395Z,31.55
2022-10-10T02:30:47.161Z,33.28
2022-10-10T02:33:20.629Z,33.55
2022-10-10T02:35:51.725Z,30.50
2022-10-10T02:38:21.527Z,32.92
2022-10-10T02:40:51.314Z,31.67
2022-10-10T02:43:20.907Z,31.70
2022-10-10T02:45:50.834Z,32.88
2022-10-10T02:48:19.421Z,29.92
2022-10-10T02:50:47.687Z,33.28
2022-10-10T02:53:15.822Z,32.58
2022-10-10T02:55:43.987Z,33.08
2022-10-10T02:58:12.107Z,31.73
2022-10-10T03:00:40.442Z,30.10
2022-10-10T03:03:10.029Z,29.92
2022-10-10T03:05:38.172Z,32.13
2022-10-10T03:08:11.319Z,30.50
2022-10-10T03:10:39.941Z,30.98
2022-10-10T03:13:08.559Z,31.92
2022-10-10T03:15:36.702Z,31.08
2022-10-10T03:18:05.107Z,32.05
2022-10-10T03:20:34.618Z,34.28
2022-10-10T03:23:02.718Z,29.85
2022-10-10T03:25:30.865Z,31.63
2022-10-10T03:27:58.964Z,30.55
2022-10-10T03:30:27.091Z,30.65
2022-10-10T03:32:55.242Z,29.80
2022-10-10T03:35:23.391Z,31.73
2022-10-10T03:37:52.878Z,31.48
2022-10-10T03:40:21.020Z,31.88
2022-10-10T03:42:49.940Z,37.13
2022-10-10T03:45:18.624Z,33.08
2022-10-10T03:47:46.935Z,30.70
2022-10-10T03:50:15.246Z,31.70
2022-10-10T03:52:43.422Z,31.88
2022-10-10T03:55:12.957Z,37.17
2022-10-10T03:57:41.318Z,32.30
2022-10-10T04:00:11.181Z,33.38
2022-10-10T04:02:39.654Z,33.05
2022-10-10T04:05:08.514Z,31.48
2022-10-10T04:07:36.695Z,32.45
2022-10-10T04:10:05.788Z,31.35
2022-10-10T04:12:35.553Z,32.53
2022-10-10T04:15:03.754Z,34.38
2022-10-10T04:17:31.919Z,36.25
2022-10-10T04:20:00.519Z,32.65
2022-10-10T04:22:28.694Z,31.42
2022-10-10T04:24:56.838Z,35.10
2022-10-10T04:27:25.010Z,33.92
2022-10-10T04:29:54.546Z,34.65
2022-10-10T04:32:22.713Z,36.10
2022-10-10T04:34:51.066Z,34.10
2022-10-10T04:37:19.211Z,41.70
2022-10-10T04:39:47.364Z,33.15
2022-10-10T04:42:16.161Z,36.20
2022-10-10T04:44:44.305Z,33.75
2022-10-10T04:47:14.116Z,32.65
2022-10-10T04:49:42.556Z,35.17
2022-10-10T04:52:10.911Z,32.20
2022-10-10T04:54:39.153Z,32.83
2022-10-10T04:57:07.854Z,32.35
2022-10-10T04:59:35.998Z,32.38
2022-10-10T05:02:04.194Z,33.42
2022-10-10T05:04:33.814Z,34.28
2022-10-10T05:07:01.997Z,33.20
2022-10-10T05:09:30.122Z,32.53
2022-10-10T05:11:58.346Z,32.83
2022-10-10T05:14:26.615Z,32.95
2022-10-10T05:16:54.787Z,33.45
2022-10-10T05:19:23.167Z,33.38
2022-10-10T05:21:52.673Z,33.30
2022-10-10T05:24:20.790Z,35.72
2022-10-10T05:26:48.908Z,33.53
2022-10-10T05:29:17.149Z,39.35
2022-10-10T05:31:45.354Z,34.47
2022-10-10T05:34:14.646Z,35.20
2022-10-10T05:36:43.210Z,36.20
2022-10-10T05:39:12.749Z,37.95
2022-10-10T05:41:40.946Z,31.90
2022-10-10T05:44:09.296Z,31.05
2022-10-10T05:46:37.469Z,32.20
2022-10-10T05:49:05.588Z,33.78
2022-10-10T05:51:34.161Z,30.63
2022-10-10T05:54:02.327Z,39.95
2022-10-10T05:56:31.912Z,35.38
2022-10-10T05:59:00.081Z,34.60
2022-10-10T06:01:28.345Z,38.85
2022-10-10T06:03:56.929Z,34.75
2022-10-10T06:06:26.635Z,32.42
2022-10-10T06:08:54.959Z,34.00
2022-10-10T06:11:25.057Z,34.53
2022-10-10T06:13:55.214Z,34.72
2022-10-10T06:16:24.213Z,35.28
2022-10-10T06:18:52.667Z,35.63
2022-10-10T06:21:21.317Z,34.80
2022-10-10T06:23:49.634Z,35.97
2022-10-10T06:26:18.234Z,34.72
2022-10-10T06:28:46.485Z,33.38
2022-10-10T06:31:16.274Z,35.20
2022-10-10T06:33:45.564Z,34.15
2022-10-10T06:36:15.011Z,35.27
2022-10-10T06:38:45.771Z,33.40
2022-10-10T06:41:14.500Z,35.57
2022-10-10T06:43:42.681Z,32.67
2022-10-10T06:46:11.791Z,31.73
2022-10-10T06:48:41.372Z,31.60
2022-10-10T06:51:12.464Z,31.30
2022-10-10T06:53:40.618Z,28.03
2022-10-10T06:56:08.857Z,32.67
2022-10-10T06:58:37.298Z,32.70
2022-10-10T07:01:06.253Z,30.57
2022-10-10T07:03:34.399Z,33.40
2022-10-10T07:06:04.602Z,32.63
2022-10-10T07:08:32.777Z,32.30
2022-10-10T07:11:00.898Z,30.23
2022-10-10T07:13:29.194Z,29.43
2022-10-10T07:15:57.339Z,35.10
2022-10-10T07:18:25.511Z,29.23
2022-10-10T07:20:57.400Z,28.37
2022-10-10T07:23:27.798Z,27.50
2022-10-10T07:26:01.003Z,31.27
2022-10-10T07:28:29.264Z,29.20
2022-10-10T07:31:01.365Z,27.77
2022-10-10T07:33:32.854Z,25.90
2022-10-10T07:36:01.071Z,26.97
2022-10-10T07:38:30.562Z,30.13
2022-10-10T07:40:58.849Z,27.33
2022-10-10T07:43:27.078Z,26.03
2022-10-10T07:45:55.234Z,25.50
2022-10-10T07:48:23.432Z,31.33
2022-10-10T07:50:51.572Z,23.87
2022-10-10T07:53:19.707Z,26.17
2022-10-10T07:55:49.283Z,22.90
2022-10-10T07:58:17.799Z,23.77
2022-10-10T08:00:45.895Z,23.90
2022-10-10T08:03:14.041Z,22.50
2022-10-10T08:05:42.926Z,23.87
2022-10-10T08:08:13.154Z,22.17
2022-10-10T08:10:44.939Z,26.50
2022-10-10T08:13:14.467Z,22.60
2022-10-10T08:15:43.074Z,22.70
2022-10-10T08:18:11.249Z,19.13
2022-10-10T08:20:39.431Z,16.83
2022-10-10T08:23:07.551Z,17.43
2022-10-10T08:25:35.848Z,15.80
2022-10-10T08:28:04.622Z,15.93
2022-10-10T08:30:34.416Z,15.03
2022-10-10T08:33:02.697Z,16.20
2022-10-10T08:35:30.875Z,17.60
2022-10-10T08:37:59.022Z,15.87
2022-10-10T08:40:28.973Z,15.13
2022-10-10T08:42:59.957Z,14.87
2022-10-10T08:45:30.382Z,15.43
2022-10-10T08:48:03.122Z,14.20
2022-10-10T08:50:35.441Z,13.13
2022-10-10T08:53:06.908Z,14.00
2022-10-10T08:55:38.566Z,14.53
2022-10-10T08:58:12.421Z,13.00
2022-10-10T09:00:45.996Z,13.97
2022-10-10T09:03:22.903Z,15.33
2022-10-10T09:06:03.627Z,12.27
2022-10-10T09:08:44.387Z,13.00
2022-10-10T09:11:23.111Z,12.10
2022-10-10T09:14:02.074Z,11.73
2022-10-10T09:16:38.063Z,12.40
2022-10-10T09:19:24.185Z,12.83
2022-10-10T09:21:55.776Z,12.40
2022-10-10T09:24:27.956Z,11.60
2022-10-10T09:27:03.855Z,12.17
2022-10-10T09:29:39.889Z,15.93
2022-10-10T09:32:14.326Z,10.47
2022-10-10T09:34:48.915Z,12.13
2022-10-10T09:37:42.294Z,11.40
2022-10-10T09:40:18.432Z,13.30
2022-10-10T09:42:46.759Z,11.10
2022-10-10T09:45:20.294Z,9.60
2022-10-10T09:47:52.444Z,10.00
2022-10-10T09:50:22.515Z,11.60
2022-10-10T09:52:52.104Z,9.70
2022-10-10T09:55:26.558Z,10.83
2022-10-10T09:57:57.978Z,9.53
2022-10-10T10:00:37.457Z,14.43
2022-10-10T10:03:14.555Z,10.17
2022-10-10T10:05:47.683Z,8.83
2022-10-10T10:08:26.423Z,9.27
2022-10-10T10:10:58.264Z,10.27
2022-10-10T10:13:30.919Z,10.00
2022-10-10T10:16:10.719Z,9.80
2022-10-10T10:18:41.695Z,10.23
2022-10-10T10:21:20.457Z,12.20
2022-10-10T10:23:57.984Z,10.83
2022-10-10T10:26:29.257Z,9.30
2022-10-10T10:28:58.944Z,9.97
2022-10-10T10:31:45.126Z,11.13
2022-10-10T10:34:40.081Z,10.20
2022-10-10T10:37:19.060Z,16.07
2022-10-10T10:40:14.958Z,9.73
2022-10-10T10:43:00.607Z,9.90
2022-10-10T10:45:38.467Z,9.60
2022-10-10T10:48:18.069Z,8.60
2022-10-10T10:50:51.275Z,8.47
2022-10-10T10:53:29.827Z,8.67
2022-10-10T10:56:12.478Z,8.40
2022-10-10T10:59:30.207Z,10.50
2022-10-10T11:01:58.535Z,8.63
2022-10-10T11:05:24.769Z,9.30
2022-10-10T11:07:46.958Z,9.63
2022-10-10T11:10:29.671Z,8.90
2022-10-10T11:13:05.739Z,9.33
2022-10-10T11:16:04.819Z,9.70
2022-10-10T11:18:33.513Z,8.70
2022-10-10T11:21:07.381Z,8.13
2022-10-10T11:23:40.491Z,8.80
2022-10-10T11:26:17.706Z,9.90
2022-10-10T11:28:50.385Z,9.13
2022-10-10T11:31:23.975Z,11.13
2022-10-10T11:33:57.435Z,9.23
2022-10-10T11:36:29.537Z,11.50
2022-10-10T11:39:05.515Z,8.63
2022-10-10T11:41:40.141Z,8.67
2022-10-10T11:44:15.609Z,9.33
2022-10-10T11:46:48.213Z,8.90
2022-10-10T11:49:23.330Z,8.67
2022-10-10T11:52:32.461Z,9.57
2022-10-10T11:55:06.911Z,9.00
2022-10-10T11:57:41.599Z,8.67
2022-10-10T12:00:14.746Z,8.90
2022-10-10T12:02:44.907Z,11.67
2022-10-10T12:05:23.920Z,8.73
2022-10-10T12:08:17.787Z,11.00
2022-10-10T12:10:51.595Z,14.50
2022-10-10T12:13:31.298Z,8.90
2022-10-10T12:16:05.018Z,9.80
2022-10-10T12:18:41.864Z,11.00
2022-10-10T12:21:12.459Z,10.27
2022-10-10T12:23:49.096Z,10.10
2022-10-10T12:26:20.217Z,8.70
2022-10-10T12:29:05.511Z,10.60
2022-10-10T12:31:38.103Z,9.10
2022-10-10T12:34:12.488Z,9.63
2022-10-10T12:36:59.079Z,9.07
2022-10-10T12:39:40.073Z,8.43
2022-10-10T12:42:31.249Z,8.40
2022-10-10T12:45:01.192Z,8.33
2022-10-10T12:47:53.025Z,8.93
2022-10-10T12:50:25.267Z,10.83
2022-10-10T12:52:57.769Z,8.43
2022-10-10T12:55:28.575Z,9.77
2022-10-10T12:57:59.982Z,9.57
2022-10-10T13:00:38.285Z,9.30
2022-10-10T13:03:14.335Z,8.47
2022-10-10T13:05:42.819Z,8.97
2022-10-10T13:08:16.348Z,8.23
2022-10-10T13:11:01.767Z,8.30
2022-10-10T13:13:30.059Z,8.20
2022-10-10T13:16:06.171Z,10.10
2022-10-10T13:18:35.639Z,8.90
2022-10-10T13:21:05.917Z,10.77
2022-10-10T13:23:36.293Z,8.87
2022-10-10T13:26:05.025Z,8.97
2022-10-10T13:28:33.586Z,8.80
2022-10-10T13:31:03.540Z,8.73
2022-10-10T13:33:34.893Z,9.93
2022-10-10T13:36:08.258Z,8.47
2022-10-10T13:38:36.803Z,8.83
2022-10-10T13:41:06.216Z,9.13
2022-10-10T13:43:34.550Z,10.10
2022-10-10T13:46:05.333Z,9.10
2022-10-10T13:48:41.060Z,9.83
2022-10-10T13:51:11.326Z,8.50
2022-10-10T13:53:51.558Z,8.83
2022-10-10T13:56:25.319Z,9.53
2022-10-10T13:58:56.303Z,9.40
2022-10-10T14:01:38.098Z,8.27
2022-10-10T14:04:17.250Z,10.27
2022-10-10T14:06:55.115Z,9.17
2022-10-10T14:09:28.859Z,11.70
2022-10-10T14:11:57.827Z,9.47
2022-10-10T14:14:27.987Z,10.00
2022-10-10T14:17:01.982Z,10.50
2022-10-10T14:19:31.030Z,10.37
2022-10-10T14:21:59.252Z,8.83
2022-10-10T14:24:27.453Z,9.63
2022-10-10T14:26:55.572Z,10.67
2022-10-10T14:29:23.974Z,9.50
2022-10-10T14:31:52.402Z,9.80
2022-10-10T14:34:21.907Z,9.70
2022-10-10T14:36:51.501Z,9.50
2022-10-10T14:39:20.725Z,15.60
2022-10-10T14:41:48.846Z,9.50
2022-10-10T14:44:16.987Z,9.50
2022-10-10T14:46:45.275Z,9.03
2022-10-10T14:49:19.742Z,9.17
2022-10-10T14:51:49.587Z,10.37
2022-10-10T14:54:17.842Z,8.87
2022-10-10T14:57:07.861Z,9.10
2022-10-10T14:59:46.110Z,10.43
2022-10-10T15:02:17.110Z,10.03
2022-10-10T15:04:45.189Z,9.60
2022-10-10T15:07:15.630Z,8.90
2022-10-10T15:10:17.593Z,10.80
2022-10-10T15:12:33.830Z,9.57
2022-10-10T15:15:02.114Z,12.23
2022-10-10T15:17:33.728Z,9.23
2022-10-10T15:20:02.278Z,8.63
2022-10-10T15:22:32.382Z,10.13
2022-10-10T15:25:01.215Z,10.00
2022-10-10T15:27:29.489Z,9.57
2022-10-10T15:29:57.710Z,10.37
2022-10-10T15:32:26.155Z,10.00
2022-10-10T15:34:54.828Z,9.47
2022-10-10T15:37:25.747Z,20.17
2022-10-10T15:39:55.441Z,10.60
2022-10-10T15:42:23.775Z,10.50
2022-10-10T15:44:52.362Z,10.83
2022-10-10T15:47:21.853Z,10.33
2022-10-10T15:49:50.608Z,10.50
2022-10-10T15:52:19.845Z,11.43
2022-10-10T15:54:49.636Z,19.33
2022-10-10T15:57:20.376Z,9.20
2022-10-10T15:59:48.809Z,11.83
2022-10-10T16:02:17.672Z,9.93
2022-10-10T16:04:46.891Z,11.10
2022-10-10T16:07:34.624Z,11.60
2022-10-10T16:10:03.975Z,10.20
2022-10-10T16:12:33.463Z,12.53
2022-10-10T16:15:06.778Z,12.03
2022-10-10T16:17:35.382Z,12.60
2022-10-10T16:20:03.742Z,12.67
2022-10-10T16:22:31.882Z,15.60
2022-10-10T16:27:49.732Z,10.83
2022-10-10T16:30:17.950Z,12.97
2022-10-10T16:32:46.058Z,10.07
2022-10-10T16:35:14.195Z,10.40
2022-10-10T16:37:42.369Z,8.63
2022-10-10T16:40:11.379Z,11.53
2022-10-10T16:42:39.511Z,10.40
2022-10-10T16:45:10.658Z,10.57
2022-10-10T16:47:38.842Z,10.27
2022-10-10T16:50:07.970Z,10.27
2022-10-10T16:52:38.217Z,13.70
2022-10-10T16:55:07.952Z,10.70
2022-10-10T16:57:36.518Z,12.83
2022-10-10T17:00:06.802Z,13.77
2022-10-10T17:02:38.856Z,14.10
2022-10-10T17:05:08.007Z,12.37
2022-10-10T17:07:36.296Z,15.30
2022-10-10T17:10:04.961Z,11.80
2022-10-10T17:12:33.188Z,15.33
2022-10-10T17:15:01.601Z,13.20
2022-10-10T17:17:29.799Z,13.23
2022-10-10T17:19:59.319Z,19.43
2022-10-10T17:22:27.488Z,13.40
2022-10-10T17:24:55.997Z,15.10
2022-10-10T17:27:24.225Z,14.40
2022-10-10T17:29:53.825Z,14.03
2022-10-10T17:32:22.610Z,14.10
2022-10-10T17:34:50.814Z,13.37
2022-10-10T17:37:20.871Z,15.67
2022-10-10T17:39:49.170Z,15.80
2022-10-10T17:42:17.483Z,16.73
2022-10-10T17:44:51.417Z,14.47
2022-10-10T17:47:21.959Z,14.17
2022-10-10T17:49:50.158Z,14.57
2022-10-10T17:52:21.252Z,15.10
2022-10-10T17:54:51.159Z,13.50
2022-10-10T17:57:19.601Z,13.90
2022-10-10T17:59:47.799Z,15.63
2022-10-10T18:02:17.384Z,13.50
2022-10-10T18:04:45.959Z,15.00
2022-10-10T18:07:14.574Z,15.57
2022-10-10T18:09:43.030Z,15.70
2022-10-10T18:12:12.963Z,15.10
2022-10-10T18:14:41.098Z,15.10
2022-10-10T18:17:09.359Z,15.07
2022-10-10T18:19:37.531Z,16.23
2022-10-10T18:22:05.809Z,17.40
2022-10-10T18:24:34.193Z,16.23
2022-10-10T18:27:02.282Z,15.40
2022-10-10T18:29:31.887Z,16.23
2022-10-10T18:31:59.967Z,16.70
2022-10-10T18:34:28.137Z,16.73
2022-10-10T18:36:56.316Z,16.17
2022-10-10T18:39:26.475Z,20.67
2022-10-10T18:41:57.675Z,15.60
2022-10-10T18:44:25.766Z,16.10
2022-10-10T18:46:55.290Z,19.33
2022-10-10T18:49:25.102Z,19.80
2022-10-10T18:51:53.507Z,16.17
2022-10-10T18:54:21.734Z,16.63
2022-10-10T18:56:50.329Z,17.00
2022-10-10T18:59:21.604Z,14.93
2022-10-10T19:01:51.916Z,14.83
2022-10-10T19:04:22.185Z,17.10
2022-10-10T19:06:56.851Z,15.27
2022-10-10T19:09:26.856Z,13.57
2022-10-10T19:11:55.209Z,13.17
2022-10-10T19:14:23.415Z,13.30
2022-10-10T19:16:51.774Z,14.00
2022-10-10T19:19:21.804Z,13.90
2022-10-10T19:21:50.561Z,13.57
2022-10-10T19:24:21.251Z,16.30
2022-10-10T19:26:56.362Z,17.80
2022-10-10T19:29:25.735Z,23.33
2022-10-10T19:31:54.034Z,17.60
2022-10-10T19:34:23.916Z,15.83
2022-10-10T19:36:52.061Z,13.93
2022-10-10T19:39:20.266Z,14.70
2022-10-10T19:41:48.513Z,15.40
2022-10-10T19:44:16.665Z,14.23
2022-10-10T19:46:44.830Z,16.43
2022-10-10T19:49:13.007Z,14.30
2022-10-10T19:51:42.553Z,15.17
2022-10-10T19:54:10.702Z,14.47
2022-10-10T19:56:38.896Z,17.57
2022-10-10T19:59:07.070Z,14.93
2022-10-10T20:01:35.689Z,16.07
2022-10-10T20:04:03.991Z,15.87
2022-10-10T20:06:32.155Z,17.23
2022-10-10T20:09:01.684Z,13.07
2022-10-10T20:11:29.895Z,14.60
2022-10-10T20:13:58.423Z,12.77
2022-10-10T20:16:27.731Z,15.03
2022-10-10T20:18:58.091Z,13.63
2022-10-10T20:21:31.397Z,13.67
2022-10-10T20:24:02.341Z,12.70
2022-10-10T20:26:31.262Z,14.43
2022-10-10T20:29:00.616Z,13.03
2022-10-10T20:31:31.017Z,12.17
2022-10-10T20:34:01.745Z,15.50
2022-10-10T20:36:30.300Z,14.80
2022-10-10T20:39:02.421Z,15.20
2022-10-10T20:41:33.826Z,12.60
2022-10-10T20:44:03.429Z,12.50
2022-10-10T20:46:34.840Z,12.87
2022-10-10T20:49:04.662Z,11.90
2022-10-10T20:51:33.085Z,12.03
2022-10-10T20:54:04.917Z,11.67
2022-10-10T20:56:34.186Z,12.13
2022-10-10T20:59:02.718Z,12.60
2022-10-10T21:01:32.202Z,11.80
2022-10-10T21:04:01.291Z,11.87
2022-10-10T21:06:32.873Z,10.77
2022-10-10T21:09:05.372Z,11.60
2022-10-10T21:11:33.919Z,13.43
2022-10-10T21:14:02.732Z,10.87
2022-10-10T21:16:32.929Z,15.87
2022-10-10T21:19:01.847Z,11.90
2022-10-10T21:21:32.700Z,13.07
2022-10-10T21:24:03.778Z,12.13
2022-10-10T21:26:32.891Z,14.27
2022-10-10T21:29:01.581Z,10.40
2022-10-10T21:31:31.436Z,13.20
2022-10-10T21:34:00.884Z,10.90
2022-10-10T21:36:29.684Z,11.63
2022-10-10T21:38:59.098Z,12.07
2022-10-10T21:41:29.247Z,10.30
2022-10-10T21:43:58.906Z,10.83
2022-10-10T21:46:33.605Z,10.27
2022-10-10T21:49:05.016Z,11.30
2022-10-10T21:51:37.944Z,12.80
2022-10-10T21:54:06.755Z,9.97
2022-10-10T21:56:36.798Z,10.70
2022-10-10T21:59:05.940Z,11.43
2022-10-10T22:01:34.538Z,12.23
2022-10-10T22:04:03.540Z,12.17
2022-10-10T22:06:32.082Z,11.23
2022-10-10T22:09:01.767Z,11.13
2022-10-10T22:11:32.238Z,12.40
2022-10-10T22:14:03.257Z,11.97
2022-10-10T22:16:32.034Z,11.70
2022-10-10T22:19:00.408Z,12.03
2022-10-10T22:21:31.665Z,11.77
2022-10-10T22:24:01.563Z,10.93
2022-10-10T22:26:30.501Z,11.63
2022-10-10T22:28:58.823Z,14.87
2022-10-10T22:31:29.327Z,11.83
2022-10-10T22:33:58.115Z,11.63
2022-10-10T22:36:27.296Z,12.20
2022-10-10T22:38:55.462Z,14.60
2022-10-10T22:41:23.623Z,12.03
2022-10-10T22:43:51.807Z,12.27
2022-10-10T22:46:20.222Z,11.80
2022-10-10T22:48:49.705Z,11.75
2022-10-10T22:51:19.673Z,12.33
2022-10-10T22:53:49.133Z,12.60
2022-10-10T22:56:20.286Z,13.20
2022-10-10T22:58:51.829Z,11.47
2022-10-10T23:01:21.822Z,12.43
2022-10-10T23:03:51.472Z,13.23
2022-10-10T23:06:19.729Z,13.00
2022-10-10T23:08:47.865Z,11.85
2022-10-10T23:11:16.263Z,14.93
2022-10-10T23:13:45.358Z,13.00
2022-10-10T23:16:13.522Z,13.17
2022-10-10T23:18:41.692Z,14.10
2022-10-10T23:21:11.252Z,13.00
2022-10-10T23:23:39.490Z,13.37
2022-10-10T23:26:09.187Z,12.67
2022-10-10T23:28:39.357Z,13.90
2022-10-10T23:31:09.911Z,12.93
2022-10-10T23:33:38.925Z,12.97
2022-10-10T23:36:09.168Z,12.63
2022-10-10T23:38:39.241Z,25.10
2022-10-10T23:41:07.765Z,14.40
2022-10-10T23:43:35.911Z,12.37
2022-10-10T23:46:04.759Z,14.53
2022-10-10T23:48:33.086Z,14.23
2022-10-10T23:51:01.210Z,17.03
2022-10-10T23:53:29.863Z,13.10
2022-10-10T23:55:59.443Z,12.37
2022-10-10T23:58:27.782Z,13.80
